createdAt,value
2019-01-08T00:00:51.262Z,100970.64
2019-01-08T00:01:54.741Z,100977.81
2019-01-08T00:02:58.235Z,100974.81
2019-01-08T00:04:01.813Z,100978.92
2019-01-08T00:05:05.542Z,100964.39
2019-01-08T00:06:09.046Z,100981.41
2019-01-08T00:07:12.541Z,100979.20
2019-01-08T00:08:16.039Z,100974.83
2019-01-08T00:09:19.546Z,100980.06
2019-01-08T00:10:23.162Z,100973.20
2019-01-08T00:11:26.656Z,100957.02
2019-01-08T00:12:30.187Z,100960.02
2019-01-08T00:13:33.687Z,100952.91
2019-01-08T00:14:37.190Z,100953.46
2019-01-08T00:15:40.736Z,100949.09
2019-01-08T00:16:44.251Z,100954.58
2019-01-08T00:17:47.741Z,100957.07
2019-01-08T00:18:51.251Z,100950.21
2019-01-08T00:19:54.731Z,100951.58
2019-01-08T00:20:58.268Z,100950.21
2019-01-08T00:22:01.840Z,100940.10
2019-01-08T00:23:05.402Z,100943.97
2019-01-08T00:24:08.895Z,100940.10
2019-01-08T00:25:12.460Z,100938.48
2019-01-08T00:26:15.980Z,100941.22
2019-01-08T00:27:19.561Z,100929.74
2019-01-08T00:28:23.140Z,100932.73
2019-01-08T00:29:26.653Z,100935.48
2019-01-08T00:30:30.140Z,100931.42
2019-01-08T00:31:33.759Z,100933.05
2019-01-08T00:32:37.250Z,100927.56
2019-01-08T00:33:40.811Z,100926.75
2019-01-08T00:34:44.381Z,100934.41
2019-01-08T00:35:47.949Z,100926.75
2019-01-08T00:36:51.537Z,100926.75
2019-01-08T00:37:55.036Z,100925.63
2019-01-08T00:38:58.608Z,100929.48
2019-01-08T00:40:02.177Z,100933.60
2019-01-08T00:41:05.699Z,100928.67
2019-01-08T00:42:09.231Z,100935.53
2019-01-08T00:43:12.708Z,100925.94
2019-01-08T00:44:16.205Z,100928.42
2019-01-08T00:45:19.839Z,100929.48
2019-01-08T00:46:23.351Z,100925.13
2019-01-08T00:47:26.975Z,100930.35
2019-01-08T00:48:30.477Z,100925.68
2019-01-08T00:49:33.964Z,100932.79
2019-01-08T00:50:37.467Z,100944.58
2019-01-08T00:51:41.065Z,100933.34
2019-01-08T00:52:44.576Z,100947.06
2019-01-08T00:53:48.137Z,100958.84
2019-01-08T00:54:51.633Z,100954.75
2019-01-08T00:55:55.134Z,100964.08
2019-01-08T00:56:58.649Z,100971.75
2019-01-08T00:58:02.216Z,100969.00
2019-01-08T00:59:05.772Z,100966.26
2019-01-08T01:00:10.098Z,100961.59
2019-01-08T01:01:13.659Z,100942.39
2019-01-08T01:02:17.252Z,100932.25
2019-01-08T01:03:20.894Z,100935.53
2019-01-08T01:04:24.379Z,100927.86
2019-01-08T01:05:27.909Z,100925.13
2019-01-08T01:06:31.404Z,100916.64
2019-01-08T01:07:34.926Z,100923.50
2019-01-08T01:08:38.436Z,100927.33
2019-01-08T01:09:41.927Z,100929.81
2019-01-08T01:10:45.432Z,100927.63
2019-01-08T01:11:48.966Z,100932.30
2019-01-08T01:12:52.536Z,100924.94
2019-01-08T01:13:56.051Z,100919.70
2019-01-08T01:14:59.578Z,100916.71
2019-01-08T01:16:03.197Z,100920.02
2019-01-08T01:17:06.756Z,100917.83
2019-01-08T01:18:10.257Z,100916.71
2019-01-08T01:19:13.753Z,100909.91
2019-01-08T01:20:17.327Z,100915.09
2019-01-08T01:21:20.865Z,100917.83
2019-01-08T01:22:24.402Z,100913.20
2019-01-08T01:23:28.000Z,100911.28
2019-01-08T01:24:31.543Z,100913.20
2019-01-08T01:25:35.037Z,100919.50
2019-01-08T01:26:38.538Z,100920.57
2019-01-08T01:27:42.073Z,100914.27
2019-01-08T01:28:45.569Z,100910.16
2019-01-08T01:29:49.074Z,100912.91
2019-01-08T01:30:52.588Z,100909.91
2019-01-08T01:31:56.088Z,100913.20
2019-01-08T01:32:59.595Z,100915.39
2019-01-08T01:34:03.326Z,100915.14
2019-01-08T01:35:06.930Z,100922.80
2019-01-08T01:36:10.418Z,100921.99
2019-01-08T01:37:13.924Z,100919.81
2019-01-08T01:38:17.445Z,100919.81
2019-01-08T01:39:20.996Z,100920.92
2019-01-08T01:40:24.519Z,100919.00
2019-01-08T01:41:28.012Z,100920.11
2019-01-08T01:42:31.528Z,100922.86
2019-01-08T01:43:35.027Z,100916.81
2019-01-08T01:44:38.580Z,100921.23
2019-01-08T01:45:42.158Z,100927.83
2019-01-08T01:46:45.643Z,100935.50
2019-01-08T01:47:49.154Z,100934.12
2019-01-08T01:48:52.681Z,100934.43
2019-01-08T01:49:56.158Z,100935.50
2019-01-08T01:50:59.682Z,100934.94
2019-01-08T01:52:03.270Z,100939.86
2019-01-08T01:53:06.749Z,100933.56
2019-01-08T01:54:10.292Z,100933.31
2019-01-08T01:55:13.926Z,100938.49
2019-01-08T01:56:17.445Z,100931.13
2019-01-08T01:57:21.145Z,100927.27
2019-01-08T01:58:24.668Z,100927.02
2019-01-08T01:59:28.173Z,100927.83
2019-01-08T02:00:31.671Z,100924.27
2019-01-08T02:01:35.157Z,100922.09
2019-01-08T02:02:38.672Z,100916.05
2019-01-08T02:03:42.175Z,100917.98
2019-01-08T02:04:46.462Z,100921.28
2019-01-08T02:05:49.970Z,100916.07
2019-01-08T02:06:53.442Z,100922.36
2019-01-08T02:07:56.942Z,100916.07
2019-01-08T02:09:00.558Z,100914.75
2019-01-08T02:10:05.383Z,100915.51
2019-01-08T02:11:12.032Z,100917.19
2019-01-08T02:12:15.534Z,100922.36
2019-01-08T02:13:19.080Z,100919.37
2019-01-08T02:14:22.625Z,100918.00
2019-01-08T02:15:26.097Z,100924.04
2019-01-08T02:16:29.674Z,100923.23
2019-01-08T02:17:33.159Z,100927.34
2019-01-08T02:18:36.643Z,100926.53
2019-01-08T02:19:40.180Z,100917.48
2019-01-08T02:20:43.866Z,100921.86
2019-01-08T02:21:47.342Z,100924.34
2019-01-08T02:22:50.832Z,100929.02
2019-01-08T02:23:54.350Z,100923.53
2019-01-08T02:24:57.874Z,100914.49
2019-01-08T02:26:01.443Z,100918.61
2019-01-08T02:27:05.096Z,100920.84
2019-01-08T02:28:08.651Z,100919.98
2019-01-08T02:29:16.526Z,100923.84
2019-01-08T02:30:17.531Z,100915.61
2019-01-08T02:31:21.041Z,100919.72
2019-01-08T02:32:24.557Z,100922.47
2019-01-08T02:33:28.172Z,100914.55
2019-01-08T02:34:31.699Z,100922.47
2019-01-08T02:35:35.294Z,100918.35
2019-01-08T02:36:38.787Z,100920.28
2019-01-08T02:37:42.424Z,100915.91
2019-01-08T02:38:45.925Z,100912.61
2019-01-08T02:39:49.485Z,100918.09
2019-01-08T02:40:53.024Z,100910.98
2019-01-08T02:41:56.662Z,100908.80
2019-01-08T02:43:00.290Z,100912.36
2019-01-08T02:44:04.025Z,100909.88
2019-01-08T02:45:07.829Z,100912.36
2019-01-08T02:46:11.447Z,100910.17
2019-01-08T02:47:15.119Z,100917.59
2019-01-08T02:48:18.599Z,100913.47
2019-01-08T02:49:22.121Z,100910.73
2019-01-08T02:50:25.680Z,100911.84
2019-01-08T02:51:29.227Z,100907.99
2019-01-08T02:52:32.750Z,100910.73
2019-01-08T02:53:36.239Z,100903.62
2019-01-08T02:54:39.850Z,100911.84
2019-01-08T02:55:43.442Z,100902.00
2019-01-08T02:56:46.953Z,100903.38
2019-01-08T02:57:50.463Z,100899.81
2019-01-08T02:58:53.968Z,100896.27
2019-01-08T02:59:57.480Z,100898.45
2019-01-08T03:01:01.015Z,100899.00
2019-01-08T03:02:04.920Z,100894.08
2019-01-08T03:03:08.433Z,100893.27
2019-01-08T03:04:11.983Z,100893.52
2019-01-08T03:05:15.543Z,100892.96
2019-01-08T03:06:19.122Z,100894.08
2019-01-08T03:07:22.654Z,100889.16
2019-01-08T03:08:26.159Z,100896.27
2019-01-08T03:09:31.365Z,100892.96
2019-01-08T03:10:34.929Z,100897.89
2019-01-08T03:11:38.514Z,100892.70
2019-01-08T03:12:42.079Z,100891.34
2019-01-08T03:13:45.712Z,100893.52
2019-01-08T03:14:49.344Z,100884.23
2019-01-08T03:15:52.902Z,100886.16
2019-01-08T03:16:56.407Z,100890.27
2019-01-08T03:17:59.943Z,100884.25
2019-01-08T03:19:03.697Z,100883.97
2019-01-08T03:20:07.945Z,100882.35
2019-01-08T03:21:11.521Z,100878.23
2019-01-08T03:22:15.071Z,100874.66
2019-01-08T03:23:18.627Z,100874.66
2019-01-08T03:24:22.233Z,100867.80
2019-01-08T03:25:25.751Z,100874.66
2019-01-08T03:26:29.255Z,100865.06
2019-01-08T03:27:32.767Z,100866.43
2019-01-08T03:28:36.331Z,100865.36
2019-01-08T03:29:39.886Z,100863.69
2019-01-08T03:30:44.923Z,100866.43
2019-01-08T03:31:48.428Z,100861.51
2019-01-08T03:32:51.900Z,100866.43
2019-01-08T03:33:55.435Z,100862.92
2019-01-08T03:34:58.929Z,100858.81
2019-01-08T03:36:02.552Z,100859.07
2019-01-08T03:37:06.059Z,100857.70
2019-01-08T03:38:09.555Z,100859.38
2019-01-08T03:39:13.089Z,100854.14
2019-01-08T03:40:16.583Z,100855.56
2019-01-08T03:41:20.066Z,100854.25
2019-01-08T03:42:23.558Z,100857.24
2019-01-08T03:43:27.142Z,100856.69
2019-01-08T03:44:30.660Z,100859.68
2019-01-08T03:45:34.210Z,100849.83
2019-01-08T03:46:37.752Z,100850.39
2019-01-08T03:47:41.260Z,100847.09
2019-01-08T03:48:44.864Z,100852.32
2019-01-08T03:49:48.454Z,100846.84
2019-01-08T03:50:51.950Z,100845.47
2019-01-08T03:51:55.462Z,100847.39
2019-01-08T03:52:59.027Z,100845.47
2019-01-08T03:54:02.549Z,100842.72
2019-01-08T03:55:06.133Z,100835.88
2019-01-08T03:56:09.647Z,100839.38
2019-01-08T03:57:13.169Z,100835.52
2019-01-08T03:58:16.691Z,100839.02
2019-01-08T03:59:20.226Z,100843.11
2019-01-08T04:00:23.792Z,100839.25
2019-01-08T04:01:27.363Z,100837.27
2019-01-08T04:02:30.867Z,100832.30
2019-01-08T04:03:34.370Z,100833.30
2019-01-08T04:04:37.925Z,100826.13
2019-01-08T04:05:41.460Z,100825.20
2019-01-08T04:06:45.034Z,100821.48
2019-01-08T04:07:48.540Z,100829.02
2019-01-08T04:08:52.116Z,100830.81
2019-01-08T04:09:55.644Z,100820.63
2019-01-08T04:10:59.190Z,100827.76
2019-01-08T04:12:02.757Z,100821.56
2019-01-08T04:13:06.397Z,100828.81
2019-01-08T04:14:09.904Z,100826.17
2019-01-08T04:15:13.393Z,100826.77
2019-01-08T04:16:16.977Z,100821.16
2019-01-08T04:17:20.535Z,100823.11
2019-01-08T04:18:24.035Z,100812.87
2019-01-08T04:19:27.552Z,100821.64
2019-01-08T04:20:31.043Z,100818.69
2019-01-08T04:21:34.647Z,100815.80
2019-01-08T04:22:38.141Z,100822.93
2019-01-08T04:23:41.646Z,100817.37
2019-01-08T04:24:45.383Z,100813.84
2019-01-08T04:25:48.952Z,100816.55
2019-01-08T04:26:52.482Z,100809.48
2019-01-08T04:27:55.991Z,100803.86
2019-01-08T04:28:59.481Z,100804.67
2019-01-08T04:30:03.159Z,100798.37
2019-01-08T04:31:06.662Z,100797.23
2019-01-08T04:32:10.170Z,100798.09
2019-01-08T04:33:13.669Z,100796.67
2019-01-08T04:34:17.230Z,100794.25
2019-01-08T04:35:20.720Z,100793.72
2019-01-08T04:36:24.205Z,100793.23
2019-01-08T04:37:27.759Z,100797.11
2019-01-08T04:38:31.271Z,100795.55
2019-01-08T04:39:34.824Z,100791.50
2019-01-08T04:40:38.422Z,100795.98
2019-01-08T04:41:41.911Z,100794.92
2019-01-08T04:42:45.547Z,100787.25
2019-01-08T04:43:49.045Z,100788.94
2019-01-08T04:44:52.531Z,100789.11
2019-01-08T04:45:56.046Z,100779.37
2019-01-08T04:46:59.566Z,100780.51
2019-01-08T04:48:03.207Z,100788.54
2019-01-08T04:49:06.720Z,100783.78
2019-01-08T04:50:10.349Z,100777.84
2019-01-08T04:51:13.918Z,100770.09
2019-01-08T04:52:17.435Z,100775.59
2019-01-08T04:53:20.953Z,100771.08
2019-01-08T04:54:24.475Z,100765.21
2019-01-08T04:55:27.974Z,100770.64
2019-01-08T04:56:31.521Z,100763.05
2019-01-08T04:57:35.105Z,100766.53
2019-01-08T04:58:38.602Z,100764.55
2019-01-08T04:59:42.202Z,100758.77
2019-01-08T05:00:45.852Z,100753.47
2019-01-08T05:01:49.411Z,100764.63
2019-01-08T05:02:52.993Z,100749.75
2019-01-08T05:03:56.534Z,100755.49
2019-01-08T05:05:00.010Z,100751.53
2019-01-08T05:06:03.636Z,100761.23
2019-01-08T05:07:06.804Z,100761.11
2019-01-08T05:08:10.351Z,100756.15
2019-01-08T05:09:13.933Z,100754.28
2019-01-08T05:10:17.485Z,100750.16
2019-01-08T05:11:21.095Z,100745.22
2019-01-08T05:12:24.597Z,100744.49
2019-01-08T05:13:28.151Z,100748.38
2019-01-08T05:14:31.692Z,100746.59
2019-01-08T05:15:35.256Z,100744.20
2019-01-08T05:16:38.741Z,100739.91
2019-01-08T05:17:42.250Z,100736.11
2019-01-08T05:18:45.986Z,100741.13
2019-01-08T05:19:49.535Z,100737.72
2019-01-08T05:20:53.121Z,100736.14
2019-01-08T05:21:56.741Z,100738.08
2019-01-08T05:23:00.272Z,100737.76
2019-01-08T05:24:03.941Z,100729.83
2019-01-08T05:25:07.553Z,100732.83
2019-01-08T05:26:11.038Z,100735.82
2019-01-08T05:27:14.594Z,100732.45
2019-01-08T05:28:18.108Z,100727.20
2019-01-08T05:29:21.646Z,100735.30
2019-01-08T05:30:25.237Z,100728.75
2019-01-08T05:31:28.769Z,100722.84
2019-01-08T05:32:32.247Z,100731.91
2019-01-08T05:33:35.821Z,100722.53
2019-01-08T05:34:39.401Z,100731.22
2019-01-08T05:35:43.088Z,100715.89
2019-01-08T05:36:46.602Z,100717.06
2019-01-08T05:37:50.176Z,100712.94
2019-01-08T05:38:54.146Z,100707.77
2019-01-08T05:39:57.765Z,100706.22
2019-01-08T05:41:01.389Z,100709.02
2019-01-08T05:42:04.895Z,100714.03
2019-01-08T05:43:08.410Z,100705.30
2019-01-08T05:44:11.980Z,100700.44
2019-01-08T05:45:15.628Z,100704.24
2019-01-08T05:46:19.152Z,100701.81
2019-01-08T05:47:22.654Z,100706.91
2019-01-08T05:48:26.322Z,100714.59
2019-01-08T05:49:29.827Z,100705.05
2019-01-08T05:50:33.413Z,100700.68
2019-01-08T05:51:36.942Z,100696.88
2019-01-08T05:52:40.500Z,100685.88
2019-01-08T05:53:44.004Z,100689.44
2019-01-08T05:54:47.573Z,100686.20
2019-01-08T05:55:51.169Z,100682.16
2019-01-08T05:56:54.698Z,100674.23
2019-01-08T05:57:58.219Z,100684.70
2019-01-08T05:59:01.776Z,100688.59
2019-01-08T06:00:06.680Z,100692.80
2019-01-08T06:01:10.212Z,100685.11
2019-01-08T06:02:13.848Z,100678.48
2019-01-08T06:03:17.435Z,100667.87
2019-01-08T06:04:20.907Z,100669.74
2019-01-08T06:05:24.410Z,100659.31
2019-01-08T06:06:28.017Z,100673.87
2019-01-08T06:07:31.833Z,100670.23
2019-01-08T06:08:35.719Z,100681.72
2019-01-08T06:09:39.289Z,100675.09
2019-01-08T06:10:44.312Z,100683.09
2019-01-08T06:11:47.839Z,100674.52
2019-01-08T06:12:51.338Z,100680.58
2019-01-08T06:13:54.848Z,100677.84
2019-01-08T06:14:58.487Z,100682.52
2019-01-08T06:16:02.051Z,100664.17
2019-01-08T06:17:05.557Z,100668.61
2019-01-08T06:18:09.127Z,100670.63
2019-01-08T06:19:12.717Z,100665.78
2019-01-08T06:20:16.287Z,100669.09
2019-01-08T06:21:19.876Z,100655.95
2019-01-08T06:22:23.385Z,100663.95
2019-01-08T06:23:26.897Z,100663.10
2019-01-08T06:24:30.486Z,100662.22
2019-01-08T06:25:34.055Z,100655.42
2019-01-08T06:26:37.606Z,100655.34
2019-01-08T06:27:41.111Z,100658.50
2019-01-08T06:28:44.882Z,100650.02
2019-01-08T06:29:48.398Z,100639.26
2019-01-08T06:30:51.926Z,100644.44
2019-01-08T06:31:55.454Z,100646.13
2019-01-08T06:32:58.963Z,100637.64
2019-01-08T06:34:02.484Z,100634.65
2019-01-08T06:35:06.710Z,100640.15
2019-01-08T06:36:10.330Z,100636.10
2019-01-08T06:37:13.881Z,100633.67
2019-01-08T06:38:17.535Z,100630.92
2019-01-08T06:39:21.050Z,100625.67
2019-01-08T06:40:24.552Z,100625.48
2019-01-08T06:41:28.146Z,100626.28
2019-01-08T06:42:31.661Z,100626.05
2019-01-08T06:43:35.162Z,100620.79
2019-01-08T06:44:38.671Z,100617.18
2019-01-08T06:45:42.200Z,100620.73
2019-01-08T06:46:45.712Z,100626.48
2019-01-08T06:47:49.207Z,100642.16
2019-01-08T06:48:52.725Z,100636.34
2019-01-08T06:49:56.255Z,100633.59
2019-01-08T06:50:59.790Z,100637.72
2019-01-08T06:52:03.364Z,100621.87
2019-01-08T06:53:06.871Z,100626.56
2019-01-08T06:54:10.380Z,100618.84
2019-01-08T06:55:13.957Z,100618.04
2019-01-08T06:56:17.478Z,100622.16
2019-01-08T06:57:20.994Z,100627.98
2019-01-08T06:58:24.489Z,100631.86
2019-01-08T06:59:28.082Z,100637.28
2019-01-08T07:00:33.538Z,100631.54
2019-01-08T07:01:36.899Z,100630.48
2019-01-08T07:02:40.388Z,100627.66
2019-01-08T07:03:43.913Z,100631.22
2019-01-08T07:04:47.503Z,100630.41
2019-01-08T07:05:51.119Z,100619.41
2019-01-08T07:06:54.657Z,100616.62
2019-01-08T07:07:58.177Z,100622.68
2019-01-08T07:09:01.758Z,100615.48
2019-01-08T07:10:07.229Z,100612.25
2019-01-08T07:11:10.786Z,100618.04
2019-01-08T07:12:14.369Z,100614.23
2019-01-08T07:13:17.863Z,100626.36
2019-01-08T07:14:21.378Z,100601.95
2019-01-08T07:15:24.911Z,100616.02
2019-01-08T07:16:28.488Z,100608.33
2019-01-08T07:17:32.010Z,100615.53
2019-01-08T07:18:35.499Z,100600.09
2019-01-08T07:19:39.003Z,100606.47
2019-01-08T07:20:42.561Z,100610.52
2019-01-08T07:21:46.135Z,100600.81
2019-01-08T07:22:49.651Z,100616.74
2019-01-08T07:23:53.151Z,100617.55
2019-01-08T07:24:56.779Z,100614.19
2019-01-08T07:26:00.294Z,100615.00
2019-01-08T07:27:03.873Z,100617.18
2019-01-08T07:28:07.381Z,100614.73
2019-01-08T07:29:10.900Z,100616.66
2019-01-08T07:30:15.007Z,100615.86
2019-01-08T07:31:18.513Z,100621.67
2019-01-08T07:32:22.081Z,100632.67
2019-01-08T07:33:25.576Z,100623.94
2019-01-08T07:34:29.110Z,100625.55
2019-01-08T07:35:32.655Z,100617.63
2019-01-08T07:36:36.230Z,100619.81
2019-01-08T07:37:39.801Z,100622.00
2019-01-08T07:38:43.315Z,100643.66
2019-01-08T07:39:46.834Z,100632.42
2019-01-08T07:40:50.340Z,100643.82
2019-01-08T07:41:53.917Z,100648.09
2019-01-08T07:42:57.409Z,100655.66
2019-01-08T07:44:00.937Z,100643.20
2019-01-08T07:45:05.398Z,100652.44
2019-01-08T07:46:08.919Z,100647.48
2019-01-08T07:47:12.435Z,100644.16
2019-01-08T07:48:15.949Z,100646.60
2019-01-08T07:49:19.486Z,100641.39
2019-01-08T07:50:22.987Z,100636.02
2019-01-08T07:51:26.576Z,100635.84
2019-01-08T07:52:30.132Z,100631.30
2019-01-08T07:53:33.628Z,100630.55
2019-01-08T07:54:37.156Z,100639.14
2019-01-08T07:55:40.665Z,100629.61
2019-01-08T07:56:44.225Z,100633.55
2019-01-08T07:57:47.730Z,100631.43
2019-01-08T07:58:51.549Z,100632.23
2019-01-08T07:59:57.514Z,100635.90
2019-01-08T08:01:01.116Z,100637.34
2019-01-08T08:02:06.733Z,100628.30
2019-01-08T08:03:10.099Z,100635.72
2019-01-08T08:04:13.664Z,100640.64
2019-01-08T08:05:17.203Z,100642.08
2019-01-08T08:06:20.713Z,100641.03
2019-01-08T08:07:24.193Z,100637.72
2019-01-08T08:08:27.706Z,100634.66
2019-01-08T08:09:31.198Z,100635.72
2019-01-08T08:10:34.705Z,100639.09
2019-01-08T08:11:38.223Z,100632.03
2019-01-08T08:12:41.701Z,100627.91
2019-01-08T08:13:45.222Z,100635.41
2019-01-08T08:14:48.734Z,100624.45
2019-01-08T08:15:52.238Z,100624.31
2019-01-08T08:16:55.744Z,100626.80
2019-01-08T08:17:59.298Z,100628.19
2019-01-08T08:19:02.793Z,100624.55
2019-01-08T08:20:07.935Z,100626.73
2019-01-08T08:21:11.518Z,100617.05
2019-01-08T08:22:15.041Z,100627.39
2019-01-08T08:23:18.540Z,100625.17
2019-01-08T08:24:22.096Z,100625.66
2019-01-08T08:25:25.615Z,100624.94
2019-01-08T08:26:29.594Z,100622.75
2019-01-08T08:27:33.261Z,100623.28
2019-01-08T08:28:36.902Z,100621.71
2019-01-08T08:29:40.380Z,100617.94
2019-01-08T08:30:43.891Z,100623.47
2019-01-08T08:31:47.424Z,100625.05
2019-01-08T08:32:50.985Z,100634.38
2019-01-08T08:33:54.687Z,100618.24
2019-01-08T08:34:58.241Z,100611.84
2019-01-08T08:36:01.798Z,100611.19
2019-01-08T08:37:05.324Z,100611.58
2019-01-08T08:38:09.020Z,100613.86
2019-01-08T08:39:12.600Z,100609.97
2019-01-08T08:40:16.271Z,100609.39
2019-01-08T08:41:19.767Z,100609.30
2019-01-08T08:42:23.301Z,100606.70
2019-01-08T08:43:26.940Z,100616.33
2019-01-08T08:44:30.568Z,100611.16
2019-01-08T08:45:34.085Z,100601.84
2019-01-08T08:46:37.786Z,100608.91
2019-01-08T08:47:41.335Z,100604.22
2019-01-08T08:48:44.838Z,100598.23
2019-01-08T08:49:48.333Z,100600.23
2019-01-08T08:50:51.837Z,100608.02
2019-01-08T08:51:55.327Z,100602.03
2019-01-08T08:52:58.831Z,100602.36
2019-01-08T08:54:02.410Z,100597.91
2019-01-08T08:55:06.235Z,100602.94
2019-01-08T08:56:09.755Z,100599.37
2019-01-08T08:57:13.332Z,100589.17
2019-01-08T08:58:16.847Z,100590.88
2019-01-08T08:59:20.366Z,100589.02
2019-01-08T09:00:23.917Z,100594.20
2019-01-08T09:01:27.399Z,100587.16
2019-01-08T09:02:30.934Z,100593.00
2019-01-08T09:03:34.433Z,100588.12
2019-01-08T09:04:38.033Z,100586.75
2019-01-08T09:05:41.568Z,100585.55
2019-01-08T09:06:45.058Z,100580.46
2019-01-08T09:07:48.556Z,100587.67
2019-01-08T09:08:52.061Z,100577.53
2019-01-08T09:09:55.555Z,100592.99
2019-01-08T09:10:59.041Z,100593.47
2019-01-08T09:12:02.536Z,100588.53
2019-01-08T09:13:06.103Z,100606.61
2019-01-08T09:14:09.627Z,100586.77
2019-01-08T09:15:13.263Z,100595.59
2019-01-08T09:16:16.759Z,100591.47
2019-01-08T09:17:20.258Z,100576.57
2019-01-08T09:18:23.835Z,100585.73
2019-01-08T09:19:27.428Z,100579.66
2019-01-08T09:20:31.176Z,100585.73
2019-01-08T09:21:34.704Z,100578.84
2019-01-08T09:22:38.194Z,100579.17
2019-01-08T09:23:41.685Z,100583.84
2019-01-08T09:24:45.205Z,100574.53
2019-01-08T09:25:48.708Z,100584.50
2019-01-08T09:26:52.193Z,100577.80
2019-01-08T09:27:55.748Z,100582.81
2019-01-08T09:28:59.260Z,100590.27
2019-01-08T09:30:03.029Z,100588.73
2019-01-08T09:31:15.128Z,100583.52
2019-01-08T09:32:12.024Z,100591.95
2019-01-08T09:33:15.590Z,100594.14
2019-01-08T09:34:19.095Z,100595.66
2019-01-08T09:35:22.684Z,100590.00
2019-01-08T09:36:26.183Z,100603.80
2019-01-08T09:37:29.792Z,100596.44
2019-01-08T09:38:33.327Z,100591.59
2019-01-08T09:39:36.866Z,100597.42
2019-01-08T09:40:40.397Z,100586.02
2019-01-08T09:41:43.926Z,100590.77
2019-01-08T09:42:47.418Z,100598.64
2019-01-08T09:43:50.929Z,100591.52
2019-01-08T09:44:54.430Z,100602.20
2019-01-08T09:45:57.951Z,100592.73
2019-01-08T09:47:01.448Z,100594.50
2019-01-08T09:48:05.016Z,100598.25
2019-01-08T09:49:08.581Z,100600.30
2019-01-08T09:50:12.084Z,100586.61
2019-01-08T09:51:15.669Z,100585.98
2019-01-08T09:52:19.221Z,100594.72
2019-01-08T09:53:22.787Z,100584.76
2019-01-08T09:54:26.276Z,100595.11
2019-01-08T09:55:29.767Z,100587.66
2019-01-08T09:56:33.383Z,100593.16
2019-01-08T09:57:37.005Z,100588.14
2019-01-08T09:58:40.499Z,100589.52
2019-01-08T09:59:44.131Z,100593.89
2019-01-08T10:00:47.641Z,100595.83
2019-01-08T10:01:51.224Z,100600.05
2019-01-08T10:02:54.772Z,100600.38
2019-01-08T10:03:58.479Z,100602.88
2019-01-08T10:05:02.043Z,100607.58
2019-01-08T10:06:05.525Z,100595.20
2019-01-08T10:07:09.158Z,100592.69
2019-01-08T10:08:12.830Z,100600.05
2019-01-08T10:09:16.410Z,100597.05
2019-01-08T10:10:19.999Z,100598.43
2019-01-08T10:11:23.588Z,100592.03
2019-01-08T10:12:27.181Z,100588.80
2019-01-08T10:13:30.687Z,100595.67
2019-01-08T10:14:34.174Z,100605.39
2019-01-08T10:15:37.685Z,100592.53
2019-01-08T10:16:41.162Z,100589.45
2019-01-08T10:17:44.820Z,100589.78
2019-01-08T10:18:48.428Z,100604.11
2019-01-08T10:19:52.106Z,100592.86
2019-01-08T10:20:55.661Z,100580.86
2019-01-08T10:21:59.413Z,100590.49
2019-01-08T10:23:10.042Z,100583.61
2019-01-08T10:24:08.283Z,100577.87
2019-01-08T10:25:12.009Z,100582.80
2019-01-08T10:26:15.540Z,100574.22
2019-01-08T10:27:19.137Z,100570.34
2019-01-08T10:28:22.790Z,100590.11
2019-01-08T10:29:26.306Z,100570.84
2019-01-08T10:30:29.916Z,100580.72
2019-01-08T10:31:33.476Z,100564.92
2019-01-08T10:32:37.003Z,100564.92
2019-01-08T10:33:40.513Z,100561.94
2019-01-08T10:34:44.147Z,100574.08
2019-01-08T10:35:47.729Z,100564.45
2019-01-08T10:36:51.218Z,100565.50
2019-01-08T10:37:54.863Z,100560.80
2019-01-08T10:38:58.388Z,100557.81
2019-01-08T10:40:02.020Z,100561.45
2019-01-08T10:41:05.546Z,100560.41
2019-01-08T10:42:09.152Z,100548.89
2019-01-08T10:43:12.716Z,100560.80
2019-01-08T10:44:16.250Z,100556.09
2019-01-08T10:45:19.808Z,100546.47
2019-01-08T10:46:23.359Z,100544.44
2019-01-08T10:47:27.036Z,100550.51
2019-01-08T10:48:30.515Z,100544.95
2019-01-08T10:49:34.225Z,100551.50
2019-01-08T10:50:37.970Z,100539.92
2019-01-08T10:51:41.602Z,100540.41
2019-01-08T10:52:45.256Z,100543.48
2019-01-08T10:53:48.808Z,100539.92
2019-01-08T10:54:52.681Z,100527.06
2019-01-08T10:55:56.406Z,100535.88
2019-01-08T10:57:00.081Z,100532.71
2019-01-08T10:58:04.304Z,100541.30
2019-01-08T10:59:08.031Z,100537.02
2019-01-08T11:00:12.018Z,100536.77
2019-01-08T11:01:17.398Z,100537.64
2019-01-08T11:02:20.901Z,100535.78
2019-01-08T11:03:24.736Z,100528.09
2019-01-08T11:04:28.386Z,100528.16
2019-01-08T11:05:32.372Z,100526.55
2019-01-08T11:06:36.052Z,100527.67
2019-01-08T11:07:39.651Z,100525.64
2019-01-08T11:08:43.341Z,100528.16
2019-01-08T11:09:47.089Z,100536.41
2019-01-08T11:10:50.726Z,100530.91
2019-01-08T11:11:54.364Z,100522.41
2019-01-08T11:12:58.005Z,100527.67
2019-01-08T11:14:01.625Z,100528.00
2019-01-08T11:15:07.668Z,100528.90
2019-01-08T11:16:11.305Z,100532.55
2019-01-08T11:17:14.783Z,100525.91
2019-01-08T11:18:18.430Z,100522.11
2019-01-08T11:19:22.082Z,100517.41
2019-01-08T11:20:25.785Z,100516.45
2019-01-08T11:21:29.369Z,100518.13
2019-01-08T11:22:33.027Z,100520.34
2019-01-08T11:23:39.632Z,100518.87
2019-01-08T11:24:43.343Z,100513.86
2019-01-08T11:25:46.948Z,100515.47
2019-01-08T11:26:50.587Z,100520.16
2019-01-08T11:27:54.387Z,100514.19
2019-01-08T11:28:58.080Z,100523.16
2019-01-08T11:30:01.791Z,100518.22
2019-01-08T11:31:05.406Z,100523.73
2019-01-08T11:32:09.008Z,100513.62
2019-01-08T11:33:12.598Z,100509.73
2019-01-08T11:34:16.340Z,100509.49
2019-01-08T11:35:20.177Z,100514.27
2019-01-08T11:36:23.936Z,100506.89
2019-01-08T11:37:27.425Z,100514.33
2019-01-08T11:38:31.069Z,100510.53
2019-01-08T11:39:34.706Z,100504.79
2019-01-08T11:40:38.264Z,100500.42
2019-01-08T11:41:41.865Z,100505.03
2019-01-08T11:42:45.658Z,100500.42
2019-01-08T11:43:49.174Z,100503.66
2019-01-08T11:44:52.937Z,100511.58
2019-01-08T11:45:56.671Z,100501.95
2019-01-08T11:47:00.355Z,100504.65
2019-01-08T11:48:04.495Z,100511.82
2019-01-08T11:49:08.089Z,100518.64
2019-01-08T11:50:11.750Z,100523.33
2019-01-08T11:51:15.270Z,100530.27
2019-01-08T11:52:19.167Z,100536.57
2019-01-08T11:53:22.796Z,100533.09
2019-01-08T11:54:26.359Z,100541.67
2019-01-08T11:55:29.842Z,100530.19
2019-01-08T11:56:34.965Z,100523.64
2019-01-08T11:57:38.482Z,100522.36
2019-01-08T11:58:42.405Z,100524.38
2019-01-08T11:59:46.004Z,100532.11
2019-01-08T12:00:51.181Z,100508.98
2019-01-08T12:01:57.448Z,100506.32
2019-01-08T12:02:59.944Z,100508.27
2019-01-08T12:04:03.517Z,100505.27
2019-01-08T12:05:07.135Z,100511.34
2019-01-08T12:06:10.686Z,100512.63